Time;durP1;ratioP1;P1;durP2;ratioP2;P2;SDS_P1;SDS_P2;PMS_P1;PMS_P2;Temp;Humidity;BMP_temperature;BMP_pressure;BME280_temperature;BME280_humidity;BME280_pressure;Samples;Min_cycle;Max_cycle;Signal;HPM_P1;HPM_P2
2023/05/21 04:30:36;;;;;;;9.63;3.13;;;13.70;67.10;;;;;;5962686;22;20057;-76
2023/05/21 04:33:02;;;;;;;6.47;2.95;;;13.80;67.30;;;;;;5009664;28;20038;-77
2023/05/21 04:35:28;;;;;;;7.65;3.13;;;13.80;67.40;;;;;;4988478;28;20034;-77
2023/05/21 04:37:53;;;;;;;13.18;3.60;;;13.70;67.60;;;;;;5011786;28;20088;-76
2023/05/21 04:40:23;;;;;;;9.15;3.30;;;13.70;67.80;;;;;;5012349;28;20026;-76
2023/05/21 04:42:49;;;;;;;6.15;3.30;;;13.70;67.90;;;;;;5012167;28;20033;-76
2023/05/21 04:45:16;;;;;;;9.52;3.22;;;13.70;68.00;;;;;;4991760;28;20030;-76
2023/05/21 04:47:42;;;;;;;10.45;3.15;;;13.70;67.90;;;;;;5012090;28;20172;-77
2023/05/21 04:50:09;;;;;;;9.32;3.25;;;13.70;68.00;;;;;;5012068;28;20112;-77
2023/05/21 04:52:35;;;;;;;14.90;3.47;;;13.70;68.10;;;;;;4994010;28;20033;-76
2023/05/21 04:55:01;;;;;;;8.48;3.30;;;13.70;68.10;;;;;;4995784;28;20034;-76
2023/05/21 04:57:28;;;;;;;9.52;3.88;;;13.70;68.30;;;;;;4992502;28;20030;-77
2023/05/21 04:59:54;;;;;;;12.18;4.50;;;13.70;68.70;;;;;;4992202;28;20030;-76
2023/05/21 05:02:19;;;;;;;12.13;4.93;;;13.70;68.80;;;;;;5008176;28;20026;-75
2023/05/21 05:04:45;;;;;;;14.98;4.88;;;13.70;68.60;;;;;;5026353;28;20412;-76
2023/05/21 05:07:11;;;;;;;8.15;3.90;;;13.70;69.00;;;;;;5025190;28;20494;-76
2023/05/21 05:09:37;;;;;;;9.82;4.43;;;13.70;69.10;;;;;;5005400;28;20037;-76
2023/05/21 05:12:03;;;;;;;11.02;5.43;;;13.70;69.00;;;;;;5025767;28;20034;-76
2023/05/21 05:14:28;;;;;;;12.77;4.95;;;13.70;69.30;;;;;;5005684;28;20026;-76
2023/05/21 05:16:58;;;;;;;13.25;4.47;;;13.70;69.50;;;;;;4995913;28;20039;-76
2023/05/21 05:19:24;;;;;;;14.82;5.70;;;13.70;69.30;;;;;;5006641;28;20017;-76
2023/05/21 05:21:49;;;;;;;10.07;5.45;;;13.70;69.50;;;;;;5035277;28;20080;-76
2023/05/21 05:24:15;;;;;;;9.27;5.40;;;13.70;69.60;;;;;;5014130;28;20052;-76
2023/05/21 05:26:41;;;;;;;12.35;5.07;;;13.70;69.80;;;;;;5015493;28;20165;-76
2023/05/21 05:29:06;;;;;;;9.63;5.32;;;13.80;69.60;;;;;;5010985;28;20398;-76
2023/05/21 05:31:32;;;;;;;12.95;5.90;;;13.80;70.00;;;;;;4995509;28;20047;-76
2023/05/21 05:33:58;;;;;;;12.10;6.30;;;13.80;70.00;;;;;;5000036;28;20033;-76
2023/05/21 05:36:23;;;;;;;14.10;6.20;;;13.90;70.00;;;;;;5014431;28;20041;-76
2023/05/21 05:38:50;;;;;;;15.43;6.80;;;13.90;70.00;;;;;;4995613;28;20118;-76
2023/05/21 05:41:15;;;;;;;13.65;5.70;;;14.00;69.90;;;;;;4995750;28;20461;-77
2023/05/21 05:43:41;;;;;;;16.27;7.25;;;13.90;70.00;;;;;;4995938;28;20034;-76
2023/05/21 05:46:06;;;;;;;13.77;6.40;;;14.00;70.00;;;;;;5006937;28;20029;-76
2023/05/21 05:48:32;;;;;;;15.60;7.05;;;14.00;70.10;;;;;;5015224;28;20053;-76
2023/05/21 05:50:58;;;;;;;14.93;6.68;;;14.10;69.90;;;;;;5015329;28;20074;-76
2023/05/21 05:53:23;;;;;;;16.42;6.47;;;14.20;70.30;;;;;;5011604;28;20086;-76
2023/05/21 05:55:49;;;;;;;14.98;6.82;;;14.20;70.20;;;;;;4995679;28;20019;-76
2023/05/21 05:58:15;;;;;;;14.23;7.40;;;14.20;70.20;;;;;;5008874;28;20032;-76
2023/05/21 06:00:41;;;;;;;12.15;6.68;;;14.30;70.20;;;;;;5005120;28;20022;-76
2023/05/21 06:03:06;;;;;;;22.77;7.43;;;14.30;70.00;;;;;;4998930;28;20405;-77
2023/05/21 06:05:32;;;;;;;16.08;7.43;;;14.40;69.60;;;;;;5015971;28;20741;-76
2023/05/21 06:07:57;;;;;;;15.07;7.10;;;14.50;69.70;;;;;;5018556;28;20038;-76
2023/05/21 06:10:23;;;;;;;20.52;8.05;;;14.50;69.70;;;;;;5003318;28;20045;-76
2023/05/21 06:12:48;;;;;;;15.48;8.50;;;14.60;69.60;;;;;;5038196;28;20036;-76
2023/05/21 06:15:15;;;;;;;23.42;8.50;;;14.60;69.40;;;;;;5038224;28;20032;-76
2023/05/21 06:17:41;;;;;;;16.77;8.63;;;14.70;69.20;;;;;;4987831;28;20074;-76
2023/05/21 06:20:08;;;;;;;13.63;7.35;;;14.60;69.40;;;;;;4998503;28;20038;-76
2023/05/21 06:22:35;;;;;;;12.65;7.80;;;14.70;69.80;;;;;;4987110;28;20030;-77
2023/05/21 06:25:01;;;;;;;18.10;8.00;;;14.70;69.20;;;;;;5000842;28;20037;-81
2023/05/21 06:27:27;;;;;;;15.40;6.97;;;14.80;69.50;;;;;;5000804;28;20037;-82
2023/05/21 06:29:53;;;;;;;14.98;7.40;;;14.80;69.40;;;;;;5007013;28;20054;-83
2023/05/21 06:32:20;;;;;;;12.23;7.63;;;14.90;69.20;;;;;;4998398;28;20097;-77
2023/05/21 06:34:45;;;;;;;17.92;8.45;;;15.00;68.60;;;;;;5008835;28;20117;-78
2023/05/21 06:37:11;;;;;;;17.25;9.13;;;15.10;68.60;;;;;;5013022;28;20050;-77
2023/05/21 06:39:37;;;;;;;15.43;8.45;;;15.10;68.60;;;;;;5017724;28;20489;-77
2023/05/21 06:42:02;;;;;;;17.15;8.98;;;15.10;68.30;;;;;;5015923;28;20032;-77
2023/05/21 06:44:28;;;;;;;15.57;8.32;;;15.20;68.20;;;;;;4980610;28;20030;-76
2023/05/21 06:46:54;;;;;;;17.83;9.38;;;15.20;68.50;;;;;;4998097;28;20781;-78
2023/05/21 06:49:19;;;;;;;17.63;8.98;;;15.30;68.20;;;;;;4997676;28;20034;-76
2023/05/21 06:51:45;;;;;;;14.23;7.30;;;15.30;67.80;;;;;;4998038;28;20034;-76
2023/05/21 06:54:11;;;;;;;14.38;7.95;;;15.40;68.20;;;;;;4998003;28;20034;-79
2023/05/21 06:56:37;;;;;;;15.43;7.68;;;15.50;67.70;;;;;;4998025;28;20413;-76
2023/05/21 06:59:03;;;;;;;17.60;7.82;;;15.50;67.60;;;;;;5012440;28;20101;-80
2023/05/21 07:05:05;;;;;;;13.18;7.50;;;15.80;67.30;;;;;;4970559;28;20117;-76
2023/05/21 07:07:30;;;;;;;12.90;8.27;;;15.90;66.90;;;;;;5011695;28;20064;-75
2023/05/21 07:09:56;;;;;;;14.73;7.68;;;16.00;66.70;;;;;;5001608;28;20026;-75
2023/05/21 07:12:21;;;;;;;16.80;7.50;;;16.20;66.30;;;;;;5016995;28;20022;-76
2023/05/21 07:14:47;;;;;;;15.73;8.27;;;16.30;66.10;;;;;;4997043;28;20033;-78
2023/05/21 07:17:13;;;;;;;15.05;7.75;;;16.60;65.40;;;;;;5006724;28;20028;-78
2023/05/21 07:19:38;;;;;;;14.00;7.32;;;16.90;65.00;;;;;;5014058;28;20042;-79
2023/05/21 07:22:05;;;;;;;11.27;6.47;;;18.30;62.10;;;;;;5009409;28;20105;-79
2023/05/21 07:24:31;;;;;;;10.40;6.47;;;19.90;57.50;;;;;;5015052;28;20628;-80
2023/05/21 07:26:56;;;;;;;11.57;6.93;;;21.70;53.50;;;;;;4997738;28;20061;-80
2023/05/21 07:29:22;;;;;;;12.70;6.95;;;23.80;48.30;;;;;;5021446;28;20080;-80
2023/05/21 07:31:48;;;;;;;11.95;6.63;;;25.60;44.10;;;;;;5007324;28;20046;-77
2023/05/21 07:34:13;;;;;;;9.88;7.38;;;27.20;41.10;;;;;;5023985;28;20029;-82
2023/05/21 07:36:42;;;;;;;9.90;5.57;;;28.40;38.90;;;;;;5005110;28;20033;-79
2023/05/21 07:39:08;;;;;;;11.80;5.68;;;29.30;37.30;;;;;;5008830;28;20018;-79
2023/05/21 07:41:33;;;;;;;12.43;6.13;;;29.90;36.00;;;;;;5022054;28;20493;-77
2023/05/21 07:44:00;;;;;;;11.95;6.22;;;30.50;35.30;;;;;;4997158;28;20049;-74
2023/05/21 07:46:26;;;;;;;9.98;5.85;;;31.00;33.60;;;;;;5002098;28;20030;-77
2023/05/21 07:48:51;;;;;;;11.35;5.97;;;31.70;32.80;;;;;;5025992;28;20034;-77
2023/05/21 07:51:17;;;;;;;11.20;5.88;;;32.20;32.20;;;;;;5006877;28;20026;-76
2023/05/21 07:53:43;;;;;;;11.50;5.82;;;32.80;31.20;;;;;;5004188;28;20428;-77
2023/05/21 07:56:09;;;;;;;11.07;6.28;;;33.10;30.60;;;;;;5019156;28;20010;-77
2023/05/21 07:58:34;;;;;;;9.40;5.68;;;33.40;30.90;;;;;;5015195;28;20029;-77
2023/05/21 08:01:00;;;;;;;16.27;6.78;;;33.60;29.80;;;;;;5002109;28;20033;-82
2023/05/21 08:03:29;;;;;;;10.68;5.90;;;33.70;29.80;;;;;;5001590;28;20101;-77
2023/05/21 08:05:55;;;;;;;13.05;6.07;;;33.20;29.50;;;;;;4996754;28;20023;-77
2023/05/21 08:08:22;;;;;;;11.02;6.40;;;32.80;30.60;;;;;;4996483;28;20045;-77
2023/05/21 08:10:48;;;;;;;11.23;6.43;;;33.10;30.20;;;;;;5014014;28;20021;-77
2023/05/21 08:13:15;;;;;;;11.38;6.05;;;33.30;30.50;;;;;;5000582;28;20040;-77
2023/05/21 08:15:41;;;;;;;9.73;6.50;;;33.90;29.60;;;;;;4993739;28;20026;-77
2023/05/21 08:18:06;;;;;;;10.43;6.32;;;34.40;29.20;;;;;;4990566;28;20042;-77
2023/05/21 08:20:32;;;;;;;11.15;6.95;;;34.80;28.50;;;;;;4995478;28;20072;-74
2023/05/21 08:23:01;;;;;;;9.82;6.63;;;35.10;28.10;;;;;;4997715;28;20027;-78
2023/05/21 08:25:27;;;;;;;9.90;5.93;;;35.50;27.50;;;;;;4995280;28;20029;-77
2023/05/21 08:27:53;;;;;;;12.18;6.10;;;35.70;27.30;;;;;;4998445;28;20026;-77
2023/05/21 08:30:19;;;;;;;11.48;6.03;;;35.80;26.90;;;;;;4993521;28;20030;-78
2023/05/21 08:32:45;;;;;;;11.20;5.25;;;35.80;27.40;;;;;;5007791;28;20029;-77
2023/05/21 08:35:11;;;;;;;12.15;6.13;;;35.80;27.80;;;;;;5016110;28;20017;-78
2023/05/21 08:37:37;;;;;;;10.50;5.60;;;35.70;27.80;;;;;;5007538;28;20034;-77
2023/05/21 08:40:03;;;;;;;9.15;5.57;;;35.60;27.50;;;;;;5011253;28;20030;-77
2023/05/21 08:42:43;;;;;;;11.73;6.03;;;35.20;28.10;;;;;;5015345;28;20029;-77
2023/05/21 08:45:12;;;;;;;11.95;6.43;;;33.50;29.00;;;;;;5013550;28;20030;-84
2023/05/21 08:47:42;;;;;;;8.95;6.40;;;32.00;30.90;;;;;;4998323;28;20030;-76
2023/05/21 08:50:10;;;;;;;11.45;6.05;;;31.00;32.70;;;;;;4997806;28;20073;-79
2023/05/21 08:52:36;;;;;;;11.90;7.93;;;31.40;32.50;;;;;;5011105;28;20030;-77
2023/05/21 08:55:08;;;;;;;13.65;8.63;;;31.30;32.80;;;;;;4995922;28;20620;-77
2023/05/21 08:57:34;;;;;;;12.10;7.15;;;30.90;32.90;;;;;;5015265;28;20117;-78
2023/05/21 09:00:00;;;;;;;13.02;7.47;;;30.70;33.70;;;;;;5006259;28;20058;-77
2023/05/21 09:02:26;;;;;;;11.57;6.85;;;31.20;32.80;;;;;;5006390;28;20072;-77
2023/05/21 09:04:57;;;;;;;12.15;6.28;;;31.60;33.00;;;;;;5012212;28;20026;-78
2023/05/21 09:07:27;;;;;;;10.52;6.07;;;32.30;32.30;;;;;;5014193;28;20026;-79
2023/05/21 09:10:02;;;;;;;7.60;6.20;;;32.80;31.60;;;;;;4994504;28;20018;-79
2023/05/21 09:12:28;;;;;;;12.18;6.45;;;33.20;31.00;;;;;;5000972;28;20145;-80
2023/05/21 09:14:57;;;;;;;11.40;6.57;;;32.40;31.20;;;;;;5013331;28;20030;-79
2023/05/21 09:17:23;;;;;;;9.05;6.50;;;31.70;32.00;;;;;;5015488;28;20022;-80
2023/05/21 09:20:09;;;;;;;11.85;7.22;;;30.80;33.50;;;;;;4993726;28;20157;-79
2023/05/21 09:22:46;;;;;;;12.55;7.40;;;29.80;34.60;;;;;;5011407;28;20100;-80
2023/05/21 09:25:17;;;;;;;12.93;6.78;;;29.50;35.30;;;;;;5007384;28;20032;-80
2023/05/21 09:27:43;;;;;;;11.68;6.25;;;29.90;35.70;;;;;;5005685;28;20027;-80
2023/05/21 09:30:11;;;;;;;12.68;6.82;;;30.00;35.10;;;;;;4995453;28;20030;-80
2023/05/21 09:32:40;;;;;;;11.63;7.00;;;29.80;35.40;;;;;;5000987;28;20042;-80
2023/05/21 09:35:08;;;;;;;;;;;30.20;35.10;;;;;;5019512;28;20024;-80
2023/05/21 09:37:44;;;;;;;9.70;6.25;;;31.10;34.70;;;;;;5019164;28;19909;-80
2023/05/21 09:40:11;;;;;;;10.55;6.82;;;31.80;32.90;;;;;;5001659;28;20044;-80
2023/05/21 09:42:39;;;;;;;10.30;6.20;;;32.40;32.50;;;;;;5000591;28;20045;-84
2023/05/21 09:45:06;;;;;;;11.63;6.90;;;32.80;32.10;;;;;;5018300;28;20537;-78
2023/05/21 09:47:32;;;;;;;8.13;5.82;;;33.10;31.60;;;;;;5018959;28;20034;-80
2023/05/21 09:49:58;;;;;;;9.75;6.65;;;33.40;31.50;;;;;;5003362;28;20034;-81
2023/05/21 09:52:25;;;;;;;11.35;6.82;;;33.70;31.30;;;;;;5028848;28;20059;-81
2023/05/21 09:54:52;;;;;;;11.73;6.53;;;33.90;30.50;;;;;;5029076;28;20021;-80
2023/05/21 09:57:25;;;;;;;11.25;6.57;;;33.90;30.40;;;;;;5025067;28;20510;-81
2023/05/21 09:59:51;;;;;;;14.10;7.05;;;33.90;30.50;;;;;;5028841;28;20152;-80
2023/05/21 10:02:22;;;;;;;14.20;7.00;;;33.80;30.00;;;;;;4993744;28;20069;-83
2023/05/21 10:04:49;;;;;;;10.77;5.97;;;33.80;29.90;;;;;;5009461;28;20018;-77
2023/05/21 10:07:25;;;;;;;12.65;6.15;;;33.80;29.90;;;;;;5018410;28;20041;-81
2023/05/21 10:09:56;;;;;;;11.80;6.75;;;33.60;30.40;;;;;;4997363;28;20057;-83
2023/05/21 10:12:23;;;;;;;10.90;6.68;;;33.80;30.20;;;;;;5005117;28;20080;-78
2023/05/21 10:15:08;;;;;;;11.98;7.03;;;33.70;30.50;;;;;;5012279;28;20029;-81
2023/05/21 10:17:34;;;;;;;7.95;5.85;;;33.60;30.50;;;;;;5014279;28;20068;-83
2023/05/21 10:20:00;;;;;;;12.70;6.82;;;33.60;30.50;;;;;;5016295;28;20026;-80
2023/05/21 10:22:26;;;;;;;8.25;5.97;;;33.30;31.00;;;;;;5017770;28;20528;-80
2023/05/21 10:24:54;;;;;;;8.52;6.25;;;33.30;30.90;;;;;;5013389;28;20084;-79
2023/05/21 10:27:21;;;;;;;9.02;6.22;;;33.20;31.00;;;;;;5017836;28;20026;-80
2023/05/21 10:29:48;;;;;;;8.35;6.30;;;32.80;31.50;;;;;;4999366;28;20117;-80
2023/05/21 10:32:18;;;;;;;8.75;6.28;;;32.50;32.20;;;;;;4999703;28;20057;-78
2023/05/21 10:34:44;;;;;;;13.38;7.03;;;32.00;32.50;;;;;;5001986;28;20026;-79
2023/05/21 10:37:12;;;;;;;14.00;6.82;;;31.30;33.50;;;;;;5017413;28;20581;-81
2023/05/21 10:39:38;;;;;;;11.10;6.68;;;30.60;34.50;;;;;;5017573;28;20401;-86
2023/05/21 10:42:29;;;;;;;9.82;7.28;;;30.20;35.40;;;;;;5017203;28;20021;-81
2023/05/21 10:45:14;;;;;;;8.43;6.45;;;29.60;36.20;;;;;;4997490;28;20046;-81
2023/05/21 10:48:21;;;;;;;12.82;7.80;;;29.30;36.60;;;;;;5014994;28;20022;-85
2023/05/21 10:51:19;;;;;;;10.45;6.93;;;28.70;37.80;;;;;;5013200;28;20339;-80
2023/05/21 10:53:54;;;;;;;12.73;7.03;;;28.40;38.40;;;;;;5004135;28;20029;-92
2023/05/21 10:56:45;;;;;;;12.20;7.10;;;28.00;39.30;;;;;;4995705;28;20474;-85
2023/05/21 10:59:30;;;;;;;14.07;7.20;;;27.80;39.70;;;;;;5005001;28;20029;-80
2023/05/21 11:01:57;;;;;;;12.70;7.20;;;27.60;40.30;;;;;;5009499;28;20034;-83
2023/05/21 11:04:26;;;;;;;13.68;8.25;;;27.60;40.50;;;;;;5009498;28;20025;-80
2023/05/21 11:06:52;;;;;;;13.67;7.73;;;27.50;40.80;;;;;;5010435;28;20026;-83
2023/05/21 11:09:18;;;;;;;9.68;6.70;;;27.30;40.70;;;;;;5002001;28;20656;-83
2023/05/21 11:11:51;;;;;;;13.02;7.50;;;27.30;41.10;;;;;;5003286;28;20029;-84
2023/05/21 11:14:26;;;;;;;15.13;7.22;;;27.30;41.40;;;;;;5010697;28;20501;-78
2023/05/21 11:16:51;;;;;;;11.20;6.40;;;27.20;41.10;;;;;;4999741;28;20061;-88
2023/05/21 11:19:17;;;;;;;12.20;7.35;;;27.10;41.90;;;;;;5010319;28;20022;-82
2023/05/21 11:21:48;;;;;;;14.73;6.15;;;27.10;41.60;;;;;;5033847;28;20133;-83
2023/05/21 11:24:18;;;;;;;12.73;6.43;;;26.90;42.10;;;;;;5029818;28;20057;-84
2023/05/21 11:26:47;;;;;;;12.40;6.72;;;26.80;42.30;;;;;;5016248;28;20025;-78
2023/05/21 11:29:13;;;;;;;17.67;9.02;;;26.80;42.50;;;;;;5001641;28;20386;-79
2023/05/21 11:31:45;;;;;;;13.68;8.05;;;26.60;42.60;;;;;;4997431;28;20129;-78
2023/05/21 11:34:12;;;;;;;10.20;7.18;;;26.60;42.90;;;;;;5011675;28;20018;-77
2023/05/21 11:36:40;;;;;;;12.02;7.28;;;26.60;42.80;;;;;;5016808;28;20477;-78
2023/05/21 11:39:14;;;;;;;10.35;7.15;;;26.40;43.20;;;;;;4995335;28;20044;-78
2023/05/21 11:42:01;;;;;;;15.65;7.45;;;26.40;43.50;;;;;;4997115;28;20026;-78
2023/05/21 11:44:42;;;;;;;10.40;7.00;;;26.50;43.40;;;;;;4997210;28;20057;-78
2023/05/21 11:47:09;;;;;;;11.25;7.50;;;26.70;43.30;;;;;;4996507;28;20038;-78
2023/05/21 11:49:36;;;;;;;14.10;7.28;;;26.60;43.20;;;;;;5015682;28;20095;-77
2023/05/21 11:52:03;;;;;;;12.43;7.53;;;26.40;43.20;;;;;;5016571;28;20482;-78
2023/05/21 11:54:35;;;;;;;13.13;7.32;;;26.40;43.00;;;;;;5015177;28;20104;-78
2023/05/21 11:57:05;;;;;;;10.65;6.82;;;26.40;44.30;;;;;;4997226;28;20026;-81
2023/05/21 11:59:32;;;;;;;13.02;8.20;;;26.40;44.30;;;;;;4996887;28;20030;-78
2023/05/21 12:01:58;;;;;;;11.50;7.47;;;26.60;43.60;;;;;;4996376;28;20125;-77
2023/05/21 12:04:31;;;;;;;11.93;6.10;;;26.60;44.10;;;;;;5004324;28;20555;-83
2023/05/21 12:06:57;;;;;;;10.90;6.93;;;26.80;43.60;;;;;;5016358;28;20034;-80
2023/05/21 12:09:23;;;;;;;11.73;7.20;;;26.80;44.00;;;;;;4997551;28;20393;-79
2023/05/21 12:11:50;;;;;;;11.77;6.90;;;26.70;43.50;;;;;;5009509;28;20037;-79
2023/05/21 12:14:16;;;;;;;13.18;6.38;;;26.60;43.70;;;;;;5035972;28;20445;-75
2023/05/21 12:16:51;;;;;;;11.13;7.32;;;26.60;43.90;;;;;;5021250;28;20520;-80
2023/05/21 12:19:17;;;;;;;10.90;6.95;;;26.60;44.10;;;;;;4996831;28;20076;-81
2023/05/21 12:21:43;;;;;;;11.68;6.82;;;26.40;44.40;;;;;;5016104;28;20025;-77
2023/05/21 12:24:09;;;;;;;10.45;7.03;;;26.20;44.30;;;;;;5011734;28;20065;-77
2023/05/21 12:26:35;;;;;;;9.68;7.03;;;26.10;44.20;;;;;;5013480;28;20504;-77
2023/05/21 12:29:04;;;;;;;11.88;6.53;;;25.90;44.80;;;;;;5004480;28;20033;-77
2023/05/21 12:31:31;;;;;;;10.60;7.07;;;25.80;45.30;;;;;;5023758;28;20046;-77
2023/05/21 12:33:57;;;;;;;14.02;7.10;;;25.80;45.10;;;;;;5014498;28;20055;-77
2023/05/21 12:36:28;;;;;;;13.35;7.45;;;25.80;45.40;;;;;;5018830;28;20018;-76
2023/05/21 12:38:55;;;;;;;17.65;7.28;;;25.90;45.50;;;;;;5025023;28;20026;-77
2023/05/21 12:41:21;;;;;;;10.57;7.03;;;25.90;45.30;;;;;;5000917;28;20032;-77
2023/05/21 12:43:47;;;;;;;14.80;8.25;;;25.90;45.30;;;;;;5025771;28;20025;-77
2023/05/21 12:46:16;;;;;;;14.57;6.85;;;25.90;45.30;;;;;;5028971;28;20489;-77
2023/05/21 12:49:02;;;;;;;11.98;7.25;;;26.00;45.60;;;;;;5028926;28;20014;-79
2023/05/21 12:51:41;;;;;;;11.43;7.05;;;26.20;44.80;;;;;;5004191;28;20060;-78
2023/05/21 12:54:12;;;;;;;15.45;7.97;;;26.30;44.80;;;;;;5005375;28;20030;-81
2023/05/21 12:56:45;;;;;;;11.23;6.93;;;26.30;44.50;;;;;;5011887;28;20037;-83
2023/05/21 12:59:16;;;;;;;11.80;6.28;;;26.30;44.90;;;;;;4996124;28;20022;-82
2023/05/21 13:01:46;;;;;;;12.73;5.78;;;26.30;45.30;;;;;;5012773;28;20484;-79
2023/05/21 13:04:12;;;;;;;12.13;6.70;;;26.30;45.50;;;;;;5014594;28;20525;-77
2023/05/21 13:06:44;;;;;;;12.93;7.47;;;26.20;45.00;;;;;;5015447;28;20505;-77
2023/05/21 13:09:09;;;;;;;11.52;6.63;;;26.20;45.10;;;;;;5017127;28;20116;-75
2023/05/21 13:11:35;;;;;;;12.25;6.75;;;26.10;45.20;;;;;;5004373;28;20037;-75
2023/05/21 13:14:01;;;;;;;12.73;7.05;;;26.00;45.10;;;;;;4999464;28;20481;-78
2023/05/21 13:16:27;;;;;;;14.63;7.13;;;25.90;45.10;;;;;;5015009;28;20479;-77
2023/05/21 13:18:52;;;;;;;12.90;6.53;;;25.80;45.00;;;;;;5017313;28;20018;-83
2023/05/21 13:21:18;;;;;;;12.60;6.10;;;25.80;45.60;;;;;;5018416;28;20099;-78
2023/05/21 13:23:43;;;;;;;11.05;5.38;;;25.70;46.00;;;;;;5018845;28;20022;-77
2023/05/21 13:26:09;;;;;;;9.82;6.32;;;25.70;45.50;;;;;;5019005;28;20021;-76
2023/05/21 13:28:35;;;;;;;12.73;5.53;;;25.70;45.40;;;;;;5017435;28;20525;-75
2023/05/21 13:31:00;;;;;;;10.40;5.43;;;25.70;45.60;;;;;;5001223;28;20054;-77
2023/05/21 13:33:26;;;;;;;9.80;5.68;;;25.60;45.60;;;;;;5018829;28;20030;-75
2023/05/21 13:35:51;;;;;;;12.43;6.38;;;25.50;45.10;;;;;;5005716;28;20033;-78
2023/05/21 13:38:17;;;;;;;9.95;5.05;;;25.50;44.90;;;;;;5018655;28;20478;-78
2023/05/21 13:40:43;;;;;;;10.10;5.47;;;25.60;45.10;;;;;;5016025;28;20401;-80
2023/05/21 13:43:08;;;;;;;9.95;5.05;;;25.60;44.50;;;;;;5018606;28;20069;-77
2023/05/21 13:45:34;;;;;;;11.00;5.70;;;25.70;44.50;;;;;;5016978;28;20018;-78
2023/05/21 13:48:00;;;;;;;10.27;4.93;;;25.80;44.40;;;;;;5018622;28;20014;-78
2023/05/21 13:50:25;;;;;;;9.07;5.13;;;25.70;44.40;;;;;;5000593;28;20061;-78
2023/05/21 13:52:51;;;;;;;10.38;5.43;;;25.80;44.20;;;;;;5017480;28;21310;-79
2023/05/21 13:55:17;;;;;;;9.60;6.35;;;25.80;44.60;;;;;;5020111;28;20105;-79
2023/05/21 13:57:44;;;;;;;10.55;5.47;;;25.70;44.40;;;;;;5018179;28;20032;-80
2023/05/21 14:00:13;;;;;;;10.50;4.90;;;25.70;44.50;;;;;;5017027;28;20056;-79
2023/05/21 14:02:40;;;;;;;8.35;5.30;;;25.60;44.40;;;;;;5015025;28;20044;-81
2023/05/21 14:05:06;;;;;;;11.25;5.18;;;25.50;44.30;;;;;;5018191;28;20030;-84
2023/05/21 14:07:32;;;;;;;8.05;4.95;;;25.40;44.90;;;;;;5018205;28;20760;-82
2023/05/21 14:09:57;;;;;;;11.70;5.80;;;25.40;44.60;;;;;;5018124;28;20028;-83
2023/05/21 14:12:23;;;;;;;8.48;4.63;;;25.30;44.80;;;;;;5004736;28;20022;-88
2023/05/21 14:14:48;;;;;;;9.18;5.05;;;25.30;44.80;;;;;;5014718;28;20052;-77
2023/05/21 14:17:14;;;;;;;10.23;5.20;;;25.20;44.80;;;;;;5015160;28;20599;-82
2023/05/21 14:19:40;;;;;;;8.65;5.20;;;25.20;45.00;;;;;;5000470;28;20033;-77
2023/05/21 14:22:05;;;;;;;8.25;5.18;;;25.30;45.00;;;;;;5016833;28;20065;-79
2023/05/21 14:24:31;;;;;;;8.52;4.57;;;25.30;44.80;;;;;;5013984;28;20037;-87
2023/05/21 14:26:57;;;;;;;6.63;4.65;;;25.30;44.80;;;;;;4998803;28;20033;-82
2023/05/21 14:29:22;;;;;;;11.05;4.68;;;25.20;45.10;;;;;;5016912;28;20030;-81
2023/05/21 14:31:48;;;;;;;8.27;5.00;;;25.30;45.00;;;;;;5018852;28;20046;-81
2023/05/21 14:34:14;;;;;;;13.02;5.15;;;25.30;45.40;;;;;;5013416;28;20034;-81
2023/05/21 14:36:39;;;;;;;11.48;6.30;;;25.10;45.80;;;;;;5017984;28;20057;-81
2023/05/21 14:39:05;;;;;;;8.57;5.03;;;25.00;45.80;;;;;;5000227;28;20033;-80
2023/05/21 14:41:31;;;;;;;10.85;5.38;;;24.90;46.00;;;;;;5016990;28;20040;-80
2023/05/21 14:43:56;;;;;;;11.70;5.53;;;24.80;46.30;;;;;;4980900;28;20045;-79
2023/05/21 14:46:22;;;;;;;9.45;5.38;;;24.80;46.30;;;;;;4980902;28;20057;-79
2023/05/21 14:48:48;;;;;;;11.32;5.50;;;24.90;46.30;;;;;;4985196;28;20030;-78
2023/05/21 14:51:13;;;;;;;9.98;5.13;;;24.80;46.20;;;;;;5015287;28;20018;-82
2023/05/21 14:53:39;;;;;;;10.77;5.70;;;24.80;46.40;;;;;;5017575;28;20489;-78
2023/05/21 14:56:06;;;;;;;14.18;4.95;;;24.80;46.40;;;;;;5017414;28;20659;-78
2023/05/21 14:58:32;;;;;;;11.35;5.55;;;24.80;46.90;;;;;;5015836;28;20084;-78
2023/05/21 15:00:57;;;;;;;9.90;5.32;;;24.90;46.60;;;;;;5016875;28;20022;-78
2023/05/21 15:03:23;;;;;;;8.82;4.88;;;24.90;46.80;;;;;;5016949;28;20029;-75
2023/05/21 15:05:49;;;;;;;12.20;4.75;;;24.90;47.10;;;;;;5017106;28;20018;-75
2023/05/21 15:08:14;;;;;;;8.02;4.75;;;24.90;46.90;;;;;;5000441;28;20393;-75
2023/05/21 15:10:40;;;;;;;8.98;4.40;;;24.90;46.00;;;;;;5021413;28;20021;-75
2023/05/21 15:13:06;;;;;;;9.13;4.75;;;24.90;45.90;;;;;;4994099;28;20026;-75
2023/05/21 15:15:31;;;;;;;9.50;4.40;;;25.00;46.10;;;;;;5001782;28;20064;-75
2023/05/21 15:17:57;;;;;;;9.70;4.47;;;25.00;46.50;;;;;;5004616;28;20034;-75
2023/05/21 15:20:23;;;;;;;9.05;4.18;;;25.00;45.90;;;;;;4997295;28;20111;-75
2023/05/21 15:22:48;;;;;;;7.90;4.47;;;25.00;46.00;;;;;;4997586;28;20022;-75
2023/05/21 15:25:17;;;;;;;15.10;4.60;;;24.90;45.60;;;;;;4997533;28;20027;-75
2023/05/21 15:27:43;;;;;;;11.98;4.63;;;24.90;45.40;;;;;;4997690;28;20023;-77
2023/05/21 15:30:09;;;;;;;9.52;3.92;;;24.80;45.70;;;;;;4996203;28;20045;-77
2023/05/21 15:32:35;;;;;;;8.20;4.45;;;24.80;46.60;;;;;;4997500;28;20109;-76
2023/05/21 15:35:00;;;;;;;12.82;4.57;;;24.70;46.60;;;;;;5009235;28;20428;-76
2023/05/21 15:37:26;;;;;;;9.63;4.30;;;24.60;46.80;;;;;;5006293;28;20034;-76
2023/05/21 15:39:52;;;;;;;10.15;4.65;;;24.70;46.80;;;;;;4979757;28;20097;-76
2023/05/21 15:42:18;;;;;;;10.32;4.75;;;24.60;47.00;;;;;;4997226;28;20022;-83
2023/05/21 15:44:43;;;;;;;8.93;4.90;;;24.60;47.20;;;;;;4995318;28;20080;-82
2023/05/21 15:47:09;;;;;;;7.15;4.55;;;24.50;46.90;;;;;;5014239;28;20038;-80
2023/05/21 15:49:35;;;;;;;12.20;5.55;;;24.40;47.00;;;;;;5000284;28;20029;-80
2023/05/21 15:52:01;;;;;;;9.18;5.22;;;24.30;47.30;;;;;;5012963;28;20034;-80
2023/05/21 15:54:27;;;;;;;10.32;5.40;;;24.20;47.70;;;;;;4998440;28;20026;-80
2023/05/21 15:56:53;;;;;;;10.45;5.00;;;24.20;47.90;;;;;;5014261;28;20030;-80
2023/05/21 15:59:18;;;;;;;11.43;5.53;;;24.20;48.10;;;;;;5016063;28;20049;-78
2023/05/21 16:01:44;;;;;;;10.48;5.45;;;24.20;47.90;;;;;;5014101;28;20052;-78
2023/05/21 16:04:10;;;;;;;8.82;5.03;;;24.10;47.40;;;;;;5013666;28;20029;-78
2023/05/21 16:06:36;;;;;;;9.07;5.40;;;24.10;47.40;;;;;;4998565;28;20218;-81
2023/05/21 16:09:02;;;;;;;6.47;4.57;;;24.10;47.30;;;;;;5016138;28;20053;-78
2023/05/21 16:11:27;;;;;;;12.52;5.38;;;24.00;47.70;;;;;;5014754;28;20117;-78
2023/05/21 16:13:53;;;;;;;10.88;5.05;;;23.90;48.00;;;;;;4998406;28;20521;-81
2023/05/21 16:16:20;;;;;;;10.00;4.78;;;23.80;47.90;;;;;;5014188;28;20037;-85
2023/05/21 16:18:46;;;;;;;8.20;4.70;;;23.80;47.90;;;;;;4998376;28;20056;-87
2023/05/21 16:21:12;;;;;;;10.60;4.72;;;23.80;47.60;;;;;;5014025;28;20496;-81
2023/05/21 16:23:37;;;;;;;10.32;4.57;;;23.60;47.30;;;;;;5015350;28;20481;-85
2023/05/21 16:26:04;;;;;;;9.93;5.13;;;23.60;47.40;;;;;;5002231;28;20044;-86
2023/05/21 16:28:30;;;;;;;8.60;4.20;;;23.50;47.10;;;;;;5015087;28;20022;-79
2023/05/21 16:30:56;;;;;;;6.57;3.47;;;23.40;46.90;;;;;;5012068;28;20069;-79
2023/05/21 16:33:21;;;;;;;5.45;3.65;;;23.30;46.70;;;;;;5015482;28;20018;-80
2023/05/21 16:35:47;;;;;;;5.93;3.92;;;23.30;46.70;;;;;;5014440;28;21469;-84
2023/05/21 16:38:13;;;;;;;10.45;3.25;;;23.20;46.80;;;;;;5012439;28;20078;-79
2023/05/21 16:40:39;;;;;;;9.35;4.22;;;23.10;46.70;;;;;;4996175;28;20034;-76
2023/05/21 16:43:07;;;;;;;6.10;4.00;;;23.10;47.00;;;;;;4996573;28;20029;-79
2023/05/21 16:45:41;;;;;;;6.03;3.50;;;23.00;46.90;;;;;;4995049;28;20026;-89
2023/05/21 16:48:07;;;;;;;6.05;3.95;;;23.00;47.10;;;;;;5013837;28;20026;-80
2023/05/21 16:50:33;;;;;;;6.53;3.88;;;22.90;47.30;;;;;;4997839;28;20115;-81
2023/05/21 16:53:01;;;;;;;10.75;4.80;;;22.90;47.40;;;;;;5015351;28;20026;-78
2023/05/21 16:55:28;;;;;;;8.93;4.05;;;22.80;47.70;;;;;;5012699;28;20145;-77
2023/05/21 16:57:53;;;;;;;7.25;3.90;;;22.80;48.10;;;;;;5010214;28;20014;-77
2023/05/21 17:00:25;;;;;;;6.38;3.58;;;22.70;47.80;;;;;;5015190;28;20028;-85
2023/05/21 17:02:51;;;;;;;5.03;3.78;;;22.70;47.90;;;;;;5011515;28;20026;-79
2023/05/21 17:05:17;;;;;;;5.60;3.63;;;22.70;47.60;;;;;;4996313;28;20045;-79
2023/05/21 17:07:42;;;;;;;6.63;3.63;;;22.60;46.90;;;;;;5006568;28;20038;-75
2023/05/21 17:10:08;;;;;;;6.90;3.92;;;22.60;47.10;;;;;;5010957;28;20062;-78
2023/05/21 17:12:34;;;;;;;9.25;4.15;;;22.60;47.30;;;;;;4993410;28;20113;-79
2023/05/21 17:15:00;;;;;;;7.60;4.03;;;22.60;47.70;;;;;;5012308;28;20068;-77